sensor_id;sensor_type;location;lat;lon;timestamp;P1;durP1;ratioP1;P2;durP2;ratioP2
18997;SDS011;9632;51.018;4.284;2023-04-24T00:02:23;27.25;;;10.93;;
18997;SDS011;9632;51.018;4.284;2023-04-24T00:04:49;24.02;;;11.05;;
18997;SDS011;9632;51.018;4.284;2023-04-24T00:07:15;26.80;;;11.02;;
18997;SDS011;9632;51.018;4.284;2023-04-24T00:09:42;23.55;;;11.18;;
18997;SDS011;9632;51.018;4.284;2023-04-24T00:12:08;27.85;;;11.55;;
18997;SDS011;9632;51.018;4.284;2023-04-24T00:14:35;26.10;;;11.23;;
18997;SDS011;9632;51.018;4.284;2023-04-24T00:17:01;22.38;;;10.75;;
18997;SDS011;9632;51.018;4.284;2023-04-24T00:19:27;23.83;;;11.32;;
18997;SDS011;9632;51.018;4.284;2023-04-24T00:21:54;29.67;;;11.65;;
18997;SDS011;9632;51.018;4.284;2023-04-24T00:24:19;21.85;;;11.73;;
18997;SDS011;9632;51.018;4.284;2023-04-24T00:26:45;22.20;;;11.13;;
18997;SDS011;9632;51.018;4.284;2023-04-24T00:29:11;26.08;;;11.85;;
18997;SDS011;9632;51.018;4.284;2023-04-24T00:31:37;25.90;;;11.32;;
18997;SDS011;9632;51.018;4.284;2023-04-24T00:34:03;27.63;;;11.60;;
18997;SDS011;9632;51.018;4.284;2023-04-24T00:36:29;27.48;;;12.05;;
18997;SDS011;9632;51.018;4.284;2023-04-24T00:38:55;28.95;;;11.88;;
18997;SDS011;9632;51.018;4.284;2023-04-24T00:41:22;33.45;;;12.35;;
18997;SDS011;9632;51.018;4.284;2023-04-24T00:43:49;26.05;;;11.75;;
18997;SDS011;9632;51.018;4.284;2023-04-24T00:46:15;26.88;;;11.77;;
18997;SDS011;9632;51.018;4.284;2023-04-24T00:48:41;22.95;;;11.15;;
18997;SDS011;9632;51.018;4.284;2023-04-24T00:51:08;24.38;;;11.25;;
18997;SDS011;9632;51.018;4.284;2023-04-24T00:53:34;21.13;;;11.27;;
18997;SDS011;9632;51.018;4.284;2023-04-24T00:56:00;28.40;;;12.48;;
18997;SDS011;9632;51.018;4.284;2023-04-24T00:58:26;28.55;;;12.27;;
18997;SDS011;9632;51.018;4.284;2023-04-24T01:00:53;29.95;;;12.88;;
18997;SDS011;9632;51.018;4.284;2023-04-24T01:03:20;27.65;;;13.23;;
18997;SDS011;9632;51.018;4.284;2023-04-24T01:05:49;27.10;;;11.50;;
18997;SDS011;9632;51.018;4.284;2023-04-24T01:08:16;22.67;;;11.48;;
18997;SDS011;9632;51.018;4.284;2023-04-24T01:10:42;28.35;;;12.77;;
18997;SDS011;9632;51.018;4.284;2023-04-24T01:13:10;24.92;;;12.52;;
18997;SDS011;9632;51.018;4.284;2023-04-24T01:15:36;25.13;;;12.40;;
18997;SDS011;9632;51.018;4.284;2023-04-24T01:18:02;31.10;;;11.90;;
18997;SDS011;9632;51.018;4.284;2023-04-24T01:20:28;27.73;;;11.57;;
18997;SDS011;9632;51.018;4.284;2023-04-24T01:22:55;24.80;;;11.32;;
18997;SDS011;9632;51.018;4.284;2023-04-24T01:25:22;26.67;;;12.13;;
18997;SDS011;9632;51.018;4.284;2023-04-24T01:27:49;24.45;;;11.02;;
18997;SDS011;9632;51.018;4.284;2023-04-24T01:30:16;27.50;;;11.70;;
18997;SDS011;9632;51.018;4.284;2023-04-24T01:32:42;22.80;;;10.90;;
18997;SDS011;9632;51.018;4.284;2023-04-24T01:35:09;24.42;;;10.40;;
18997;SDS011;9632;51.018;4.284;2023-04-24T01:37:35;20.77;;;10.32;;
18997;SDS011;9632;51.018;4.284;2023-04-24T01:40:02;18.42;;;9.68;;
18997;SDS011;9632;51.018;4.284;2023-04-24T01:42:32;21.60;;;9.40;;
18997;SDS011;9632;51.018;4.284;2023-04-24T01:44:58;19.77;;;9.55;;
18997;SDS011;9632;51.018;4.284;2023-04-24T01:47:26;18.40;;;8.68;;
18997;SDS011;9632;51.018;4.284;2023-04-24T01:49:52;16.40;;;8.02;;
18997;SDS011;9632;51.018;4.284;2023-04-24T01:52:18;18.50;;;8.38;;
18997;SDS011;9632;51.018;4.284;2023-04-24T01:54:44;15.50;;;8.40;;
18997;SDS011;9632;51.018;4.284;2023-04-24T01:57:10;15.73;;;8.00;;
18997;SDS011;9632;51.018;4.284;2023-04-24T01:59:36;14.25;;;8.27;;
18997;SDS011;9632;51.018;4.284;2023-04-24T02:02:02;13.80;;;7.57;;
18997;SDS011;9632;51.018;4.284;2023-04-24T02:04:28;14.68;;;7.95;;
18997;SDS011;9632;51.018;4.284;2023-04-24T02:06:54;14.63;;;7.25;;
18997;SDS011;9632;51.018;4.284;2023-04-24T02:09:20;14.82;;;6.90;;
18997;SDS011;9632;51.018;4.284;2023-04-24T02:11:45;12.20;;;6.90;;
18997;SDS011;9632;51.018;4.284;2023-04-24T02:14:11;12.85;;;6.68;;
18997;SDS011;9632;51.018;4.284;2023-04-24T02:16:37;12.75;;;7.32;;
18997;SDS011;9632;51.018;4.284;2023-04-24T02:19:03;14.23;;;7.30;;
18997;SDS011;9632;51.018;4.284;2023-04-24T02:21:28;10.90;;;6.80;;
18997;SDS011;9632;51.018;4.284;2023-04-24T02:23:55;12.57;;;7.07;;
18997;SDS011;9632;51.018;4.284;2023-04-24T02:26:21;11.75;;;6.85;;
18997;SDS011;9632;51.018;4.284;2023-04-24T02:28:47;13.68;;;7.60;;
18997;SDS011;9632;51.018;4.284;2023-04-24T02:31:13;13.32;;;7.45;;
18997;SDS011;9632;51.018;4.284;2023-04-24T02:33:39;15.85;;;7.13;;
18997;SDS011;9632;51.018;4.284;2023-04-24T02:36:05;13.70;;;7.22;;
18997;SDS011;9632;51.018;4.284;2023-04-24T02:38:31;11.68;;;7.40;;
18997;SDS011;9632;51.018;4.284;2023-04-24T02:40:56;15.52;;;7.90;;
18997;SDS011;9632;51.018;4.284;2023-04-24T02:43:22;16.90;;;8.85;;
18997;SDS011;9632;51.018;4.284;2023-04-24T02:45:48;17.00;;;8.40;;
18997;SDS011;9632;51.018;4.284;2023-04-24T02:48:14;14.65;;;8.52;;
18997;SDS011;9632;51.018;4.284;2023-04-24T02:50:39;17.92;;;9.55;;
18997;SDS011;9632;51.018;4.284;2023-04-24T02:53:05;20.38;;;9.45;;
18997;SDS011;9632;51.018;4.284;2023-04-24T02:55:31;17.40;;;9.60;;
18997;SDS011;9632;51.018;4.284;2023-04-24T02:57:57;16.40;;;9.32;;
18997;SDS011;9632;51.018;4.284;2023-04-24T03:00:23;15.32;;;9.10;;
18997;SDS011;9632;51.018;4.284;2023-04-24T03:02:49;21.80;;;9.88;;
18997;SDS011;9632;51.018;4.284;2023-04-24T03:05:15;15.18;;;8.45;;
18997;SDS011;9632;51.018;4.284;2023-04-24T03:07:41;18.60;;;9.52;;
18997;SDS011;9632;51.018;4.284;2023-04-24T03:10:06;18.33;;;9.10;;
18997;SDS011;9632;51.018;4.284;2023-04-24T03:12:33;15.77;;;9.23;;
18997;SDS011;9632;51.018;4.284;2023-04-24T03:14:58;16.83;;;8.02;;
18997;SDS011;9632;51.018;4.284;2023-04-24T03:17:24;17.67;;;9.57;;
18997;SDS011;9632;51.018;4.284;2023-04-24T03:19:50;16.27;;;8.60;;
18997;SDS011;9632;51.018;4.284;2023-04-24T03:22:15;16.67;;;8.88;;
18997;SDS011;9632;51.018;4.284;2023-04-24T03:24:41;13.23;;;7.65;;
18997;SDS011;9632;51.018;4.284;2023-04-24T03:27:07;14.90;;;8.07;;
18997;SDS011;9632;51.018;4.284;2023-04-24T03:29:32;12.85;;;7.45;;
18997;SDS011;9632;51.018;4.284;2023-04-24T03:31:58;13.27;;;7.43;;
18997;SDS011;9632;51.018;4.284;2023-04-24T03:34:23;15.55;;;8.40;;
18997;SDS011;9632;51.018;4.284;2023-04-24T03:36:49;12.65;;;7.47;;
18997;SDS011;9632;51.018;4.284;2023-04-24T03:39:15;12.43;;;7.53;;
18997;SDS011;9632;51.018;4.284;2023-04-24T03:41:41;14.02;;;7.55;;
18997;SDS011;9632;51.018;4.284;2023-04-24T03:44:07;13.23;;;7.90;;
18997;SDS011;9632;51.018;4.284;2023-04-24T03:46:32;12.82;;;7.93;;
18997;SDS011;9632;51.018;4.284;2023-04-24T03:48:58;14.75;;;7.75;;
18997;SDS011;9632;51.018;4.284;2023-04-24T03:51:24;12.98;;;7.53;;
18997;SDS011;9632;51.018;4.284;2023-04-24T03:53:50;12.77;;;7.60;;
18997;SDS011;9632;51.018;4.284;2023-04-24T03:56:16;13.05;;;7.30;;
18997;SDS011;9632;51.018;4.284;2023-04-24T03:58:42;13.95;;;7.90;;
18997;SDS011;9632;51.018;4.284;2023-04-24T04:01:07;12.75;;;7.75;;
18997;SDS011;9632;51.018;4.284;2023-04-24T04:03:33;14.20;;;8.18;;
18997;SDS011;9632;51.018;4.284;2023-04-24T04:05:59;13.90;;;7.63;;
18997;SDS011;9632;51.018;4.284;2023-04-24T04:08:24;15.00;;;7.68;;
18997;SDS011;9632;51.018;4.284;2023-04-24T04:10:50;14.93;;;7.65;;
18997;SDS011;9632;51.018;4.284;2023-04-24T04:13:16;16.55;;;8.02;;
18997;SDS011;9632;51.018;4.284;2023-04-24T04:15:41;20.40;;;9.05;;
18997;SDS011;9632;51.018;4.284;2023-04-24T04:18:07;24.88;;;11.55;;
18997;SDS011;9632;51.018;4.284;2023-04-24T04:20:33;31.67;;;13.48;;
18997;SDS011;9632;51.018;4.284;2023-04-24T04:22:59;33.35;;;14.30;;
18997;SDS011;9632;51.018;4.284;2023-04-24T04:25:25;31.20;;;13.35;;
18997;SDS011;9632;51.018;4.284;2023-04-24T04:27:50;24.35;;;9.93;;
18997;SDS011;9632;51.018;4.284;2023-04-24T04:30:17;22.58;;;8.50;;
18997;SDS011;9632;51.018;4.284;2023-04-24T04:32:43;17.63;;;7.50;;
18997;SDS011;9632;51.018;4.284;2023-04-24T04:35:09;15.00;;;7.05;;
18997;SDS011;9632;51.018;4.284;2023-04-24T04:37:35;13.45;;;7.65;;
18997;SDS011;9632;51.018;4.284;2023-04-24T04:40:01;18.02;;;8.95;;
18997;SDS011;9632;51.018;4.284;2023-04-24T04:42:37;19.48;;;10.13;;
18997;SDS011;9632;51.018;4.284;2023-04-24T04:45:06;19.95;;;9.30;;
18997;SDS011;9632;51.018;4.284;2023-04-24T04:47:33;22.15;;;10.18;;
18997;SDS011;9632;51.018;4.284;2023-04-24T04:49:59;23.30;;;10.43;;
18997;SDS011;9632;51.018;4.284;2023-04-24T04:52:25;23.02;;;11.00;;
18997;SDS011;9632;51.018;4.284;2023-04-24T04:54:51;21.52;;;11.00;;
18997;SDS011;9632;51.018;4.284;2023-04-24T04:57:17;25.05;;;11.07;;
18997;SDS011;9632;51.018;4.284;2023-04-24T04:59:43;19.80;;;10.52;;
18997;SDS011;9632;51.018;4.284;2023-04-24T05:02:08;22.90;;;11.40;;
18997;SDS011;9632;51.018;4.284;2023-04-24T05:04:34;18.95;;;10.23;;
18997;SDS011;9632;51.018;4.284;2023-04-24T05:07:00;19.17;;;9.93;;
18997;SDS011;9632;51.018;4.284;2023-04-24T05:09:25;20.73;;;10.32;;
18997;SDS011;9632;51.018;4.284;2023-04-24T05:11:52;22.42;;;9.88;;
18997;SDS011;9632;51.018;4.284;2023-04-24T05:14:18;23.60;;;9.82;;
18997;SDS011;9632;51.018;4.284;2023-04-24T05:16:44;22.67;;;10.25;;
18997;SDS011;9632;51.018;4.284;2023-04-24T05:19:10;20.75;;;10.25;;
18997;SDS011;9632;51.018;4.284;2023-04-24T05:21:36;21.83;;;10.55;;
18997;SDS011;9632;51.018;4.284;2023-04-24T05:24:02;22.50;;;9.77;;
18997;SDS011;9632;51.018;4.284;2023-04-24T05:26:28;20.85;;;9.77;;
18997;SDS011;9632;51.018;4.284;2023-04-24T05:28:54;19.02;;;9.38;;
18997;SDS011;9632;51.018;4.284;2023-04-24T05:31:20;27.83;;;10.50;;
18997;SDS011;9632;51.018;4.284;2023-04-24T05:33:46;22.38;;;10.45;;
18997;SDS011;9632;51.018;4.284;2023-04-24T05:36:11;21.58;;;9.57;;
18997;SDS011;9632;51.018;4.284;2023-04-24T05:38:37;20.98;;;9.80;;
18997;SDS011;9632;51.018;4.284;2023-04-24T05:41:03;24.05;;;10.90;;
18997;SDS011;9632;51.018;4.284;2023-04-24T05:43:29;25.67;;;10.57;;
18997;SDS011;9632;51.018;4.284;2023-04-24T05:45:54;20.45;;;10.02;;
18997;SDS011;9632;51.018;4.284;2023-04-24T05:48:20;22.08;;;10.77;;
18997;SDS011;9632;51.018;4.284;2023-04-24T05:50:47;25.77;;;11.38;;
18997;SDS011;9632;51.018;4.284;2023-04-24T05:53:13;25.58;;;11.73;;
18997;SDS011;9632;51.018;4.284;2023-04-24T05:55:38;23.30;;;11.15;;
18997;SDS011;9632;51.018;4.284;2023-04-24T05:58:04;26.95;;;11.50;;
18997;SDS011;9632;51.018;4.284;2023-04-24T06:00:31;29.98;;;12.23;;
18997;SDS011;9632;51.018;4.284;2023-04-24T06:02:57;22.90;;;11.65;;
18997;SDS011;9632;51.018;4.284;2023-04-24T06:05:23;33.45;;;13.55;;
18997;SDS011;9632;51.018;4.284;2023-04-24T06:07:50;30.00;;;12.80;;
18997;SDS011;9632;51.018;4.284;2023-04-24T06:10:16;24.40;;;12.65;;
18997;SDS011;9632;51.018;4.284;2023-04-24T06:12:41;27.35;;;13.02;;
18997;SDS011;9632;51.018;4.284;2023-04-24T06:15:07;30.92;;;13.30;;
18997;SDS011;9632;51.018;4.284;2023-04-24T06:17:33;32.17;;;13.23;;
18997;SDS011;9632;51.018;4.284;2023-04-24T06:19:59;27.13;;;12.75;;
18997;SDS011;9632;51.018;4.284;2023-04-24T06:22:25;26.83;;;12.55;;
18997;SDS011;9632;51.018;4.284;2023-04-24T06:24:50;28.00;;;12.82;;
18997;SDS011;9632;51.018;4.284;2023-04-24T06:27:16;31.15;;;12.75;;
18997;SDS011;9632;51.018;4.284;2023-04-24T06:29:41;25.48;;;12.75;;
18997;SDS011;9632;51.018;4.284;2023-04-24T06:32:07;27.33;;;12.73;;
18997;SDS011;9632;51.018;4.284;2023-04-24T06:34:33;29.58;;;14.27;;
18997;SDS011;9632;51.018;4.284;2023-04-24T06:36:59;31.15;;;14.18;;
18997;SDS011;9632;51.018;4.284;2023-04-24T06:39:25;28.08;;;12.85;;
18997;SDS011;9632;51.018;4.284;2023-04-24T06:41:51;28.42;;;13.65;;
18997;SDS011;9632;51.018;4.284;2023-04-24T06:44:16;36.90;;;14.23;;
18997;SDS011;9632;51.018;4.284;2023-04-24T06:46:42;35.97;;;14.25;;
18997;SDS011;9632;51.018;4.284;2023-04-24T06:49:08;34.88;;;15.15;;
18997;SDS011;9632;51.018;4.284;2023-04-24T06:51:34;31.42;;;15.52;;
18997;SDS011;9632;51.018;4.284;2023-04-24T06:54:00;32.45;;;14.18;;
18997;SDS011;9632;51.018;4.284;2023-04-24T06:56:25;32.50;;;15.20;;
18997;SDS011;9632;51.018;4.284;2023-04-24T06:58:51;38.13;;;15.07;;
18997;SDS011;9632;51.018;4.284;2023-04-24T07:01:17;32.00;;;14.40;;
18997;SDS011;9632;51.018;4.284;2023-04-24T07:03:43;43.28;;;15.32;;
18997;SDS011;9632;51.018;4.284;2023-04-24T07:06:09;42.47;;;15.60;;
18997;SDS011;9632;51.018;4.284;2023-04-24T07:08:38;35.90;;;15.07;;
18997;SDS011;9632;51.018;4.284;2023-04-24T07:11:04;36.30;;;15.32;;
18997;SDS011;9632;51.018;4.284;2023-04-24T07:13:29;37.38;;;13.85;;
18997;SDS011;9632;51.018;4.284;2023-04-24T07:15:55;32.95;;;13.25;;
18997;SDS011;9632;51.018;4.284;2023-04-24T07:18:21;33.40;;;13.30;;
18997;SDS011;9632;51.018;4.284;2023-04-24T07:20:47;30.45;;;12.48;;
18997;SDS011;9632;51.018;4.284;2023-04-24T07:23:15;29.42;;;12.23;;
18997;SDS011;9632;51.018;4.284;2023-04-24T07:25:40;28.52;;;12.23;;
18997;SDS011;9632;51.018;4.284;2023-04-24T07:28:06;30.15;;;12.60;;
18997;SDS011;9632;51.018;4.284;2023-04-24T07:30:32;31.45;;;12.02;;
18997;SDS011;9632;51.018;4.284;2023-04-24T07:32:58;31.20;;;11.40;;
18997;SDS011;9632;51.018;4.284;2023-04-24T07:35:24;32.22;;;11.77;;
18997;SDS011;9632;51.018;4.284;2023-04-24T07:37:53;28.95;;;11.85;;
18997;SDS011;9632;51.018;4.284;2023-04-24T07:40:20;28.73;;;12.13;;
18997;SDS011;9632;51.018;4.284;2023-04-24T07:42:46;29.58;;;10.73;;
18997;SDS011;9632;51.018;4.284;2023-04-24T07:45:13;33.63;;;11.45;;
18997;SDS011;9632;51.018;4.284;2023-04-24T07:47:39;27.25;;;9.57;;
18997;SDS011;9632;51.018;4.284;2023-04-24T07:50:08;23.27;;;8.65;;
18997;SDS011;9632;51.018;4.284;2023-04-24T07:52:34;22.55;;;7.80;;
18997;SDS011;9632;51.018;4.284;2023-04-24T07:55:00;20.27;;;6.20;;
18997;SDS011;9632;51.018;4.284;2023-04-24T07:57:27;15.60;;;5.78;;
18997;SDS011;9632;51.018;4.284;2023-04-24T07:59:53;21.17;;;5.68;;
18997;SDS011;9632;51.018;4.284;2023-04-24T08:02:19;19.40;;;5.55;;
18997;SDS011;9632;51.018;4.284;2023-04-24T08:04:46;23.38;;;5.53;;
18997;SDS011;9632;51.018;4.284;2023-04-24T08:07:12;20.15;;;5.88;;
18997;SDS011;9632;51.018;4.284;2023-04-24T08:09:38;18.20;;;6.10;;
18997;SDS011;9632;51.018;4.284;2023-04-24T08:12:04;24.77;;;6.65;;
18997;SDS011;9632;51.018;4.284;2023-04-24T08:14:29;21.15;;;6.82;;
18997;SDS011;9632;51.018;4.284;2023-04-24T08:16:55;20.58;;;5.32;;
18997;SDS011;9632;51.018;4.284;2023-04-24T08:19:21;18.70;;;5.70;;
18997;SDS011;9632;51.018;4.284;2023-04-24T08:21:47;23.95;;;6.25;;
18997;SDS011;9632;51.018;4.284;2023-04-24T08:24:12;26.00;;;6.22;;
18997;SDS011;9632;51.018;4.284;2023-04-24T08:26:38;18.10;;;4.55;;
18997;SDS011;9632;51.018;4.284;2023-04-24T08:29:04;25.42;;;4.43;;
18997;SDS011;9632;51.018;4.284;2023-04-24T08:31:31;14.88;;;4.45;;
18997;SDS011;9632;51.018;4.284;2023-04-24T08:33:57;17.58;;;4.13;;
18997;SDS011;9632;51.018;4.284;2023-04-24T08:36:24;16.00;;;4.40;;
18997;SDS011;9632;51.018;4.284;2023-04-24T08:38:51;17.98;;;3.90;;
18997;SDS011;9632;51.018;4.284;2023-04-24T08:41:16;11.18;;;3.20;;
18997;SDS011;9632;51.018;4.284;2023-04-24T08:43:45;15.98;;;3.80;;
18997;SDS011;9632;51.018;4.284;2023-04-24T08:46:11;18.40;;;4.13;;
18997;SDS011;9632;51.018;4.284;2023-04-24T08:48:38;15.02;;;3.75;;
18997;SDS011;9632;51.018;4.284;2023-04-24T08:51:06;18.77;;;4.38;;
18997;SDS011;9632;51.018;4.284;2023-04-24T08:53:33;23.90;;;5.25;;
18997;SDS011;9632;51.018;4.284;2023-04-24T08:55:59;21.92;;;5.45;;
18997;SDS011;9632;51.018;4.284;2023-04-24T08:58:26;16.65;;;5.25;;
18997;SDS011;9632;51.018;4.284;2023-04-24T09:00:56;20.75;;;6.00;;
18997;SDS011;9632;51.018;4.284;2023-04-24T09:03:22;17.27;;;5.40;;
18997;SDS011;9632;51.018;4.284;2023-04-24T09:05:48;24.08;;;5.60;;
18997;SDS011;9632;51.018;4.284;2023-04-24T09:08:16;18.20;;;5.28;;
18997;SDS011;9632;51.018;4.284;2023-04-24T09:10:43;23.45;;;5.10;;
18997;SDS011;9632;51.018;4.284;2023-04-24T09:13:10;17.20;;;4.90;;
18997;SDS011;9632;51.018;4.284;2023-04-24T09:15:36;16.58;;;4.65;;
18997;SDS011;9632;51.018;4.284;2023-04-24T09:18:03;18.27;;;4.55;;
18997;SDS011;9632;51.018;4.284;2023-04-24T09:20:30;14.90;;;4.30;;
18997;SDS011;9632;51.018;4.284;2023-04-24T09:22:57;11.60;;;3.88;;
18997;SDS011;9632;51.018;4.284;2023-04-24T09:25:24;12.75;;;4.47;;
18997;SDS011;9632;51.018;4.284;2023-04-24T09:28:00;11.65;;;3.30;;
18997;SDS011;9632;51.018;4.284;2023-04-24T09:30:28;16.27;;;3.75;;
18997;SDS011;9632;51.018;4.284;2023-04-24T09:33:10;11.63;;;3.70;;
18997;SDS011;9632;51.018;4.284;2023-04-24T09:35:40;14.23;;;3.55;;
18997;SDS011;9632;51.018;4.284;2023-04-24T09:38:07;13.95;;;3.22;;
18997;SDS011;9632;51.018;4.284;2023-04-24T09:40:34;11.32;;;3.67;;
18997;SDS011;9632;51.018;4.284;2023-04-24T09:43:00;11.18;;;3.50;;
18997;SDS011;9632;51.018;4.284;2023-04-24T09:45:37;12.73;;;3.28;;
18997;SDS011;9632;51.018;4.284;2023-04-24T09:48:04;12.38;;;3.30;;
18997;SDS011;9632;51.018;4.284;2023-04-24T09:50:31;12.13;;;3.47;;
18997;SDS011;9632;51.018;4.284;2023-04-24T09:53:05;15.15;;;3.78;;
18997;SDS011;9632;51.018;4.284;2023-04-24T09:55:38;10.93;;;3.35;;
18997;SDS011;9632;51.018;4.284;2023-04-24T09:58:11;17.10;;;3.78;;
18997;SDS011;9632;51.018;4.284;2023-04-24T10:00:36;14.38;;;4.00;;
18997;SDS011;9632;51.018;4.284;2023-04-24T10:03:03;17.83;;;3.63;;
18997;SDS011;9632;51.018;4.284;2023-04-24T10:05:33;9.15;;;3.17;;
18997;SDS011;9632;51.018;4.284;2023-04-24T10:08:02;15.35;;;3.92;;
18997;SDS011;9632;51.018;4.284;2023-04-24T10:10:29;12.20;;;3.30;;
18997;SDS011;9632;51.018;4.284;2023-04-24T10:12:56;11.65;;;3.45;;
18997;SDS011;9632;51.018;4.284;2023-04-24T10:15:22;7.95;;;3.60;;
18997;SDS011;9632;51.018;4.284;2023-04-24T10:17:50;14.05;;;3.95;;
18997;SDS011;9632;51.018;4.284;2023-04-24T10:20:23;12.18;;;3.92;;
18997;SDS011;9632;51.018;4.284;2023-04-24T10:22:51;16.92;;;3.85;;
18997;SDS011;9632;51.018;4.284;2023-04-24T10:25:22;10.05;;;3.55;;
18997;SDS011;9632;51.018;4.284;2023-04-24T10:27:49;10.60;;;3.40;;
18997;SDS011;9632;51.018;4.284;2023-04-24T10:30:16;13.57;;;3.53;;
18997;SDS011;9632;51.018;4.284;2023-04-24T10:32:43;11.63;;;3.70;;
18997;SDS011;9632;51.018;4.284;2023-04-24T10:35:09;11.38;;;3.80;;
18997;SDS011;9632;51.018;4.284;2023-04-24T10:37:39;13.00;;;3.80;;
18997;SDS011;9632;51.018;4.284;2023-04-24T10:40:09;12.15;;;3.60;;
18997;SDS011;9632;51.018;4.284;2023-04-24T10:42:39;8.15;;;3.70;;
18997;SDS011;9632;51.018;4.284;2023-04-24T10:45:06;12.65;;;3.78;;
18997;SDS011;9632;51.018;4.284;2023-04-24T10:47:41;9.30;;;3.50;;
18997;SDS011;9632;51.018;4.284;2023-04-24T10:50:10;11.52;;;3.30;;
18997;SDS011;9632;51.018;4.284;2023-04-24T10:52:45;9.05;;;3.60;;
18997;SDS011;9632;51.018;4.284;2023-04-24T10:55:15;10.98;;;3.15;;
18997;SDS011;9632;51.018;4.284;2023-04-24T10:58:00;10.57;;;2.80;;
18997;SDS011;9632;51.018;4.284;2023-04-24T11:00:29;10.68;;;2.72;;
18997;SDS011;9632;51.018;4.284;2023-04-24T11:02:55;9.65;;;2.80;;
18997;SDS011;9632;51.018;4.284;2023-04-24T11:05:22;9.07;;;2.50;;
18997;SDS011;9632;51.018;4.284;2023-04-24T11:08:11;10.82;;;3.00;;
18997;SDS011;9632;51.018;4.284;2023-04-24T11:10:39;9.13;;;3.00;;
18997;SDS011;9632;51.018;4.284;2023-04-24T11:13:08;9.02;;;2.67;;
18997;SDS011;9632;51.018;4.284;2023-04-24T11:15:37;10.32;;;3.10;;
18997;SDS011;9632;51.018;4.284;2023-04-24T11:18:07;11.77;;;3.17;;
18997;SDS011;9632;51.018;4.284;2023-04-24T11:20:41;11.10;;;3.40;;
18997;SDS011;9632;51.018;4.284;2023-04-24T11:23:08;8.45;;;3.33;;
18997;SDS011;9632;51.018;4.284;2023-04-24T11:25:36;8.23;;;3.30;;
18997;SDS011;9632;51.018;4.284;2023-04-24T11:28:03;8.77;;;3.15;;
18997;SDS011;9632;51.018;4.284;2023-04-24T11:30:30;8.45;;;2.78;;
18997;SDS011;9632;51.018;4.284;2023-04-24T11:33:04;8.93;;;3.00;;
18997;SDS011;9632;51.018;4.284;2023-04-24T11:35:30;6.60;;;2.55;;
18997;SDS011;9632;51.018;4.284;2023-04-24T11:38:03;7.85;;;2.67;;
18997;SDS011;9632;51.018;4.284;2023-04-24T11:40:30;9.38;;;2.60;;
18997;SDS011;9632;51.018;4.284;2023-04-24T11:42:56;6.28;;;2.55;;
18997;SDS011;9632;51.018;4.284;2023-04-24T11:45:25;8.48;;;3.28;;
18997;SDS011;9632;51.018;4.284;2023-04-24T11:47:55;9.25;;;3.10;;
18997;SDS011;9632;51.018;4.284;2023-04-24T11:50:22;8.88;;;2.90;;
18997;SDS011;9632;51.018;4.284;2023-04-24T11:52:50;10.15;;;3.03;;
18997;SDS011;9632;51.018;4.284;2023-04-24T11:57:46;13.75;;;3.30;;
18997;SDS011;9632;51.018;4.284;2023-04-24T12:02:42;9.52;;;3.20;;
18997;SDS011;9632;51.018;4.284;2023-04-24T12:05:07;9.50;;;3.08;;
18997;SDS011;9632;51.018;4.284;2023-04-24T12:07:42;12.18;;;3.15;;
18997;SDS011;9632;51.018;4.284;2023-04-24T12:10:08;6.72;;;2.85;;
18997;SDS011;9632;51.018;4.284;2023-04-24T12:12:34;11.38;;;3.08;;
18997;SDS011;9632;51.018;4.284;2023-04-24T12:15:00;9.07;;;3.10;;
18997;SDS011;9632;51.018;4.284;2023-04-24T12:17:32;9.95;;;2.90;;
18997;SDS011;9632;51.018;4.284;2023-04-24T12:20:05;9.90;;;2.90;;
18997;SDS011;9632;51.018;4.284;2023-04-24T12:22:51;7.78;;;2.53;;
18997;SDS011;9632;51.018;4.284;2023-04-24T12:25:20;9.40;;;2.67;;
18997;SDS011;9632;51.018;4.284;2023-04-24T12:30:31;10.00;;;2.95;;
18997;SDS011;9632;51.018;4.284;2023-04-24T12:33:01;11.23;;;3.13;;
18997;SDS011;9632;51.018;4.284;2023-04-24T12:35:29;7.35;;;3.13;;
18997;SDS011;9632;51.018;4.284;2023-04-24T12:38:13;12.18;;;3.15;;
18997;SDS011;9632;51.018;4.284;2023-04-24T12:40:40;12.88;;;3.00;;
18997;SDS011;9632;51.018;4.284;2023-04-24T12:43:17;12.20;;;3.17;;
18997;SDS011;9632;51.018;4.284;2023-04-24T12:45:44;9.57;;;2.85;;
18997;SDS011;9632;51.018;4.284;2023-04-24T12:48:10;10.15;;;2.70;;
18997;SDS011;9632;51.018;4.284;2023-04-24T12:50:36;9.75;;;3.00;;
18997;SDS011;9632;51.018;4.284;2023-04-24T12:53:03;10.07;;;2.78;;
18997;SDS011;9632;51.018;4.284;2023-04-24T12:55:28;10.75;;;2.63;;
18997;SDS011;9632;51.018;4.284;2023-04-24T12:57:54;7.60;;;2.38;;
18997;SDS011;9632;51.018;4.284;2023-04-24T13:00:21;8.02;;;2.15;;
18997;SDS011;9632;51.018;4.284;2023-04-24T13:02:47;9.95;;;2.33;;
18997;SDS011;9632;51.018;4.284;2023-04-24T13:05:12;6.38;;;2.15;;
18997;SDS011;9632;51.018;4.284;2023-04-24T13:07:38;6.97;;;2.22;;
18997;SDS011;9632;51.018;4.284;2023-04-24T13:10:05;9.75;;;2.40;;
18997;SDS011;9632;51.018;4.284;2023-04-24T13:12:31;8.00;;;1.75;;
18997;SDS011;9632;51.018;4.284;2023-04-24T13:14:57;9.65;;;1.83;;
18997;SDS011;9632;51.018;4.284;2023-04-24T13:17:23;7.80;;;1.65;;
18997;SDS011;9632;51.018;4.284;2023-04-24T13:19:49;4.93;;;1.30;;
18997;SDS011;9632;51.018;4.284;2023-04-24T13:22:16;5.88;;;1.50;;
18997;SDS011;9632;51.018;4.284;2023-04-24T13:24:43;5.00;;;1.63;;
18997;SDS011;9632;51.018;4.284;2023-04-24T13:27:09;5.10;;;1.60;;
18997;SDS011;9632;51.018;4.284;2023-04-24T13:29:36;5.97;;;1.42;;
18997;SDS011;9632;51.018;4.284;2023-04-24T13:32:02;5.05;;;1.40;;
18997;SDS011;9632;51.018;4.284;2023-04-24T13:34:28;4.40;;;1.23;;
18997;SDS011;9632;51.018;4.284;2023-04-24T13:36:54;7.18;;;1.23;;
18997;SDS011;9632;51.018;4.284;2023-04-24T13:39:21;5.30;;;1.33;;
18997;SDS011;9632;51.018;4.284;2023-04-24T13:41:48;7.90;;;1.42;;
18997;SDS011;9632;51.018;4.284;2023-04-24T13:44:14;4.97;;;1.48;;
18997;SDS011;9632;51.018;4.284;2023-04-24T13:46:41;7.85;;;2.22;;
18997;SDS011;9632;51.018;4.284;2023-04-24T13:49:09;9.13;;;2.33;;
18997;SDS011;9632;51.018;4.284;2023-04-24T13:51:35;7.18;;;2.22;;
18997;SDS011;9632;51.018;4.284;2023-04-24T13:54:01;6.75;;;2.35;;
18997;SDS011;9632;51.018;4.284;2023-04-24T13:56:26;6.53;;;2.10;;
18997;SDS011;9632;51.018;4.284;2023-04-24T13:58:52;6.47;;;2.22;;
18997;SDS011;9632;51.018;4.284;2023-04-24T14:01:19;8.88;;;2.88;;
18997;SDS011;9632;51.018;4.284;2023-04-24T14:03:49;7.85;;;2.30;;
18997;SDS011;9632;51.018;4.284;2023-04-24T14:06:15;11.70;;;2.10;;
18997;SDS011;9632;51.018;4.284;2023-04-24T14:08:40;6.47;;;2.22;;
18997;SDS011;9632;51.018;4.284;2023-04-24T14:11:06;7.20;;;2.30;;
18997;SDS011;9632;51.018;4.284;2023-04-24T14:13:31;7.10;;;2.42;;
18997;SDS011;9632;51.018;4.284;2023-04-24T14:15:57;3.90;;;1.90;;
18997;SDS011;9632;51.018;4.284;2023-04-24T14:18:23;6.00;;;2.17;;
18997;SDS011;9632;51.018;4.284;2023-04-24T14:20:49;6.53;;;2.25;;
18997;SDS011;9632;51.018;4.284;2023-04-24T14:23:15;5.80;;;1.85;;
18997;SDS011;9632;51.018;4.284;2023-04-24T14:25:40;8.32;;;2.60;;
18997;SDS011;9632;51.018;4.284;2023-04-24T14:28:06;8.95;;;2.67;;
18997;SDS011;9632;51.018;4.284;2023-04-24T14:30:32;7.00;;;2.95;;
18997;SDS011;9632;51.018;4.284;2023-04-24T14:32:58;10.00;;;3.60;;
18997;SDS011;9632;51.018;4.284;2023-04-24T14:35:23;9.45;;;3.97;;
18997;SDS011;9632;51.018;4.284;2023-04-24T14:37:49;5.97;;;2.50;;
18997;SDS011;9632;51.018;4.284;2023-04-24T14:40:15;5.82;;;2.22;;
18997;SDS011;9632;51.018;4.284;2023-04-24T14:42:40;6.63;;;2.20;;
18997;SDS011;9632;51.018;4.284;2023-04-24T14:45:06;5.88;;;2.08;;
18997;SDS011;9632;51.018;4.284;2023-04-24T14:47:33;4.72;;;1.77;;
18997;SDS011;9632;51.018;4.284;2023-04-24T14:49:58;3.85;;;1.20;;
18997;SDS011;9632;51.018;4.284;2023-04-24T14:52:24;2.92;;;0.98;;